createdAt,value
2023-05-21T00:01:25.646Z,12.75
2023-05-21T00:03:52.688Z,12.68
2023-05-21T00:06:20.952Z,13.05
2023-05-21T00:08:48.100Z,13.95
2023-05-21T00:11:14.939Z,13.48
2023-05-21T00:13:42.163Z,14.38
2023-05-21T00:16:10.991Z,13.77
2023-05-21T00:18:39.438Z,15.02
2023-05-21T00:21:06.709Z,14.55
2023-05-21T00:23:34.082Z,12.57
2023-05-21T00:26:01.290Z,14.07
2023-05-21T00:28:28.199Z,15.45
2023-05-21T00:30:55.045Z,13.15
2023-05-21T00:33:22.538Z,14.98
2023-05-21T00:35:49.410Z,13.50
2023-05-21T00:38:18.480Z,14.57
2023-05-21T00:40:45.474Z,14.85
2023-05-21T00:43:14.394Z,13.05
2023-05-21T00:45:44.668Z,15.63
2023-05-21T00:48:12.978Z,14.00
2023-05-21T00:50:40.637Z,16.13
2023-05-21T00:53:11.386Z,17.00
2023-05-21T00:55:38.616Z,15.98
2023-05-21T00:58:06.612Z,14.35
2023-05-21T01:00:40.588Z,15.55
2023-05-21T01:03:08.079Z,15.75
2023-05-21T01:05:35.474Z,15.60
2023-05-21T01:08:03.197Z,15.00
2023-05-21T01:10:30.835Z,14.40
2023-05-21T01:12:59.125Z,15.32
2023-05-21T01:15:27.366Z,14.23
2023-05-21T01:17:55.779Z,19.50
2023-05-21T01:20:24.621Z,15.70
2023-05-21T01:22:54.069Z,13.93
2023-05-21T01:25:24.094Z,13.18
2023-05-21T01:30:20.046Z,14.75
2023-05-21T01:33:17.486Z,14.60
2023-05-21T01:36:08.900Z,14.10
2023-05-21T01:38:49.322Z,15.98
2023-05-21T01:41:19.952Z,14.40
2023-05-21T01:43:48.015Z,16.63
2023-05-21T01:46:20.378Z,19.88
2023-05-21T01:48:49.968Z,17.27
2023-05-21T01:51:17.109Z,15.13
2023-05-21T01:53:43.954Z,17.13
2023-05-21T01:56:11.252Z,13.50
2023-05-21T01:58:38.163Z,15.27
2023-05-21T02:01:05.596Z,16.55
2023-05-21T02:03:32.884Z,17.65
2023-05-21T02:05:59.828Z,14.35
2023-05-21T02:08:27.834Z,18.90
2023-05-21T02:10:55.563Z,16.52
2023-05-21T02:13:25.173Z,16.77
2023-05-21T02:15:54.442Z,16.30
2023-05-21T02:18:21.782Z,14.77
2023-05-21T02:20:48.662Z,19.50
2023-05-21T02:23:15.677Z,20.10
2023-05-21T02:25:42.517Z,17.33
2023-05-21T02:28:09.441Z,18.98
2023-05-21T02:30:36.696Z,19.17
2023-05-21T02:33:03.665Z,16.88
2023-05-21T02:35:30.727Z,15.82
2023-05-21T02:37:59.264Z,16.65
2023-05-21T02:40:26.394Z,14.88
2023-05-21T02:42:53.293Z,20.20
2023-05-21T02:45:21.633Z,15.90
2023-05-21T02:47:48.618Z,18.85
2023-05-21T02:52:52.349Z,13.07
2023-05-21T02:55:19.457Z,12.85
2023-05-21T02:57:46.287Z,15.63
2023-05-21T03:00:14.174Z,15.80
2023-05-21T03:02:43.240Z,13.50
2023-05-21T03:05:10.520Z,17.42
2023-05-21T03:07:37.382Z,14.32
2023-05-21T03:10:05.386Z,14.52
2023-05-21T03:12:32.301Z,13.65
2023-05-21T03:15:00.813Z,14.50
2023-05-21T03:17:28.313Z,14.70
2023-05-21T03:19:55.911Z,14.32
2023-05-21T03:22:22.849Z,17.40
2023-05-21T03:24:50.109Z,15.98
2023-05-21T03:27:18.313Z,17.02
2023-05-21T03:29:46.008Z,14.43
2023-05-21T03:32:13.521Z,14.00
2023-05-21T03:34:41.035Z,14.60
2023-05-21T03:37:08.388Z,17.30
2023-05-21T03:39:35.440Z,15.07
2023-05-21T03:42:02.573Z,17.45
2023-05-21T03:44:46.554Z,16.08
2023-05-21T03:47:30.446Z,16.73
2023-05-21T03:49:58.455Z,16.73
2023-05-21T03:52:25.422Z,21.52
2023-05-21T03:54:52.454Z,17.63
2023-05-21T03:57:19.396Z,17.02
2023-05-21T03:59:47.626Z,18.00
2023-05-21T04:02:15.625Z,16.55
2023-05-21T04:04:44.310Z,18.90
2023-05-21T04:07:14.533Z,16.27
2023-05-21T04:09:42.069Z,15.80
2023-05-21T04:12:08.984Z,15.80
2023-05-21T04:14:40.117Z,16.15
2023-05-21T04:17:06.981Z,17.23
2023-05-21T04:19:34.121Z,19.08
2023-05-21T04:22:03.690Z,16.05
2023-05-21T04:24:32.180Z,17.60
2023-05-21T04:27:13.833Z,16.85
2023-05-21T04:29:43.200Z,16.10
2023-05-21T04:32:11.616Z,19.75
2023-05-21T04:34:39.618Z,16.23
2023-05-21T04:37:06.902Z,17.40
2023-05-21T04:39:34.717Z,14.65
2023-05-21T04:42:03.033Z,15.00
2023-05-21T04:44:30.266Z,19.70
2023-05-21T04:46:58.729Z,18.50
2023-05-21T04:49:25.716Z,15.60
2023-05-21T04:51:52.617Z,17.92
2023-05-21T04:54:20.426Z,15.52
2023-05-21T04:56:47.324Z,16.77
2023-05-21T04:59:14.931Z,15.23
2023-05-21T05:01:43.824Z,18.70
2023-05-21T05:04:10.776Z,18.02
2023-05-21T05:06:37.677Z,17.95
2023-05-21T05:09:05.402Z,17.85
2023-05-21T05:11:32.277Z,17.58
2023-05-21T05:13:59.165Z,17.08
2023-05-21T05:16:26.068Z,16.25
2023-05-21T05:18:56.354Z,17.25
2023-05-21T05:21:24.056Z,16.67
2023-05-21T05:23:51.088Z,16.13
2023-05-21T05:26:19.616Z,17.38
2023-05-21T05:28:46.732Z,16.70
2023-05-21T05:31:14.200Z,23.65
2023-05-21T05:33:43.224Z,18.75
2023-05-21T05:36:11.747Z,17.15
2023-05-21T05:38:38.760Z,17.35
2023-05-21T05:41:05.622Z,19.17
2023-05-21T05:43:32.533Z,15.02
2023-05-21T05:46:00.562Z,17.27
2023-05-21T05:48:27.550Z,17.30
2023-05-21T05:50:57.121Z,18.73
2023-05-21T05:53:25.765Z,16.90
2023-05-21T05:55:53.179Z,16.67
2023-05-21T05:58:20.120Z,17.08
2023-05-21T06:01:19.566Z,16.90
2023-05-21T06:03:47.417Z,16.45
2023-05-21T06:06:17.167Z,17.95
2023-05-21T06:08:44.762Z,18.58
2023-05-21T06:11:12.533Z,19.15
2023-05-21T06:13:39.445Z,18.17
2023-05-21T06:16:07.522Z,16.75
2023-05-21T06:18:34.503Z,18.13
2023-05-21T06:21:01.542Z,18.30
2023-05-21T06:23:28.831Z,18.73
2023-05-21T06:25:55.776Z,18.95
2023-05-21T06:28:22.966Z,17.20
2023-05-21T06:30:50.725Z,18.50
2023-05-21T06:33:17.715Z,17.20
2023-05-21T06:35:44.639Z,17.15
2023-05-21T06:38:12.273Z,17.40
2023-05-21T06:40:39.157Z,17.58
2023-05-21T06:43:08.135Z,18.70
2023-05-21T06:45:53.507Z,15.70
2023-05-21T06:48:36.004Z,16.42
2023-05-21T06:51:02.818Z,18.50
2023-05-21T06:53:29.692Z,16.90
2023-05-21T06:55:56.579Z,17.55
2023-05-21T06:58:49.558Z,17.50
2023-05-21T07:01:17.096Z,15.00
2023-05-21T07:03:44.283Z,16.02
2023-05-21T07:06:11.383Z,14.00
2023-05-21T07:08:38.242Z,18.33
2023-05-21T07:11:05.118Z,14.15
2023-05-21T07:13:32.301Z,13.00
2023-05-21T07:15:59.214Z,13.38
2023-05-21T07:18:27.407Z,12.50
2023-05-21T07:20:54.740Z,12.38
2023-05-21T07:23:21.641Z,12.25
2023-05-21T07:25:48.511Z,12.55
2023-05-21T07:28:15.471Z,11.50
2023-05-21T07:30:42.564Z,15.35
2023-05-21T07:33:13.906Z,12.82
2023-05-21T07:35:40.970Z,12.80
2023-05-21T07:38:08.062Z,12.23
2023-05-21T07:40:34.963Z,12.73
2023-05-21T07:43:03.209Z,11.63
2023-05-21T07:45:31.287Z,13.05
2023-05-21T07:47:58.403Z,11.77
2023-05-21T07:50:26.607Z,12.38
2023-05-21T07:52:54.598Z,13.38
2023-05-21T07:55:21.698Z,12.50
2023-05-21T07:57:49.385Z,11.88
2023-05-21T08:00:19.022Z,12.20
2023-05-21T08:02:53.506Z,12.15
2023-05-21T08:05:23.367Z,11.68
2023-05-21T08:07:50.654Z,10.50
2023-05-21T08:10:19.476Z,11.77
2023-05-21T08:12:48.434Z,12.38
2023-05-21T08:15:15.381Z,15.65
2023-05-21T08:17:46.014Z,11.88
2023-05-21T08:20:14.287Z,11.00
2023-05-21T08:22:43.673Z,10.93
2023-05-21T08:25:11.074Z,11.48
2023-05-21T08:27:38.293Z,14.45
2023-05-21T08:30:06.772Z,11.50
2023-05-21T08:32:33.676Z,12.65
2023-05-21T08:35:01.681Z,12.32
2023-05-21T08:37:44.020Z,13.00
2023-05-21T08:40:19.541Z,10.98
2023-05-21T08:42:49.779Z,11.45
2023-05-21T08:45:38.066Z,12.77
2023-05-21T08:50:34.686Z,10.63
2023-05-21T08:53:15.798Z,11.68
2023-05-21T08:55:47.021Z,12.73
2023-05-21T08:58:14.707Z,10.45
2023-05-21T09:00:42.038Z,15.50
2023-05-21T09:03:12.260Z,9.80
2023-05-21T09:05:45.012Z,10.30
2023-05-21T09:08:35.907Z,15.27
2023-05-21T09:11:07.022Z,12.55
2023-05-21T09:13:44.957Z,12.55
2023-05-21T09:16:19.252Z,11.60
2023-05-21T09:18:46.163Z,9.82
2023-05-21T09:21:29.778Z,10.05
2023-05-21T09:24:04.762Z,15.23
2023-05-21T09:26:31.951Z,18.48
2023-05-21T09:29:03.634Z,10.05
2023-05-21T09:31:30.706Z,9.60
2023-05-21T09:33:58.788Z,10.57
2023-05-21T09:36:29.271Z,11.27
2023-05-21T09:41:33.642Z,12.37
2023-05-21T09:44:02.428Z,11.10
2023-05-21T09:46:41.341Z,12.02
2023-05-21T09:49:24.696Z,9.57
2023-05-21T09:51:56.713Z,14.15
2023-05-21T09:54:24.893Z,10.07
2023-05-21T09:56:55.284Z,11.57
2023-05-21T09:59:22.329Z,11.82
2023-05-21T10:01:53.031Z,10.95
2023-05-21T10:04:21.219Z,10.70
2023-05-21T10:06:48.957Z,16.42
2023-05-21T10:09:19.117Z,12.52
2023-05-21T10:11:49.489Z,11.85
2023-05-21T10:14:22.372Z,16.42
2023-05-21T10:16:50.356Z,11.65
2023-05-21T10:19:17.994Z,11.27
2023-05-21T10:21:46.217Z,12.57
2023-05-21T10:24:13.711Z,10.60
2023-05-21T10:26:41.832Z,10.30
2023-05-21T10:29:10.117Z,12.32
2023-05-21T10:31:39.175Z,10.30
2023-05-21T10:34:06.337Z,12.07
2023-05-21T10:36:34.289Z,12.52
2023-05-21T10:39:03.011Z,11.43
2023-05-21T10:41:46.081Z,14.35
2023-05-21T10:44:44.422Z,13.15
2023-05-21T10:47:46.061Z,10.65
2023-05-21T10:50:57.886Z,12.57
2023-05-21T10:53:49.046Z,13.95
2023-05-21T10:56:38.211Z,10.30
2023-05-21T10:59:31.861Z,11.45
2023-05-21T11:01:59.368Z,12.27
2023-05-21T11:04:30.942Z,10.85
2023-05-21T11:06:59.295Z,12.57
2023-05-21T11:09:26.852Z,10.18
2023-05-21T11:11:58.683Z,10.40
2023-05-21T11:14:58.118Z,12.40
2023-05-21T11:17:43.070Z,9.27
2023-05-21T11:20:14.252Z,10.02
2023-05-21T11:22:41.250Z,9.32
2023-05-21T11:25:08.564Z,8.48
2023-05-21T11:27:42.413Z,10.75
2023-05-21T11:30:15.841Z,10.27
2023-05-21T11:33:09.956Z,9.93
2023-05-21T11:35:44.824Z,11.45
2023-05-21T11:38:11.682Z,10.93
2023-05-21T11:40:50.658Z,10.50
2023-05-21T11:43:18.868Z,12.73
2023-05-21T11:45:47.260Z,12.38
2023-05-21T11:48:14.487Z,10.38
2023-05-21T11:50:44.669Z,14.10
2023-05-21T11:53:12.200Z,10.00
2023-05-21T11:55:43.381Z,9.32
2023-05-21T11:58:14.369Z,9.07
2023-05-21T12:00:41.450Z,9.38
2023-05-21T12:03:12.843Z,8.13
2023-05-21T12:05:48.052Z,9.32
2023-05-21T12:08:27.743Z,8.48
2023-05-21T12:10:59.944Z,8.07
2023-05-21T12:13:27.898Z,11.07
2023-05-21T12:15:54.807Z,7.72
2023-05-21T12:18:22.170Z,9.48
2023-05-21T12:20:49.747Z,11.02
2023-05-21T12:23:25.870Z,12.68
2023-05-21T12:25:53.663Z,7.68
2023-05-21T12:28:24.639Z,10.05
2023-05-21T12:30:51.563Z,8.88
2023-05-21T12:33:19.005Z,11.15
2023-05-21T12:35:50.362Z,10.77
2023-05-21T12:38:17.440Z,8.40
2023-05-21T12:40:45.434Z,7.85
2023-05-21T12:43:12.418Z,7.25
2023-05-21T12:45:39.667Z,9.93
2023-05-21T12:48:06.955Z,7.82
2023-05-21T12:50:35.594Z,8.13
2023-05-21T12:53:02.878Z,6.60
2023-05-21T12:55:31.663Z,9.05
2023-05-21T12:58:08.864Z,7.40
2023-05-21T13:00:36.854Z,7.65
2023-05-21T13:03:07.152Z,8.63
2023-05-21T13:05:34.635Z,7.22
2023-05-21T13:08:01.707Z,7.18
2023-05-21T13:10:28.656Z,6.85
2023-05-21T13:12:55.699Z,7.57
2023-05-21T13:15:22.602Z,8.80
2023-05-21T13:17:50.844Z,6.35
2023-05-21T13:20:23.698Z,8.82
2023-05-21T13:22:52.022Z,7.13
2023-05-21T13:25:22.012Z,6.90
2023-05-21T13:27:50.372Z,7.95
2023-05-21T13:30:18.728Z,8.02
2023-05-21T13:32:45.939Z,6.63
2023-05-21T13:35:12.951Z,6.97
2023-05-21T13:37:41.296Z,8.18
2023-05-21T13:40:14.857Z,6.45
2023-05-21T13:42:46.961Z,7.28
2023-05-21T13:45:17.673Z,5.88
2023-05-21T13:47:46.891Z,5.65
2023-05-21T13:50:14.078Z,10.88
2023-05-21T13:52:41.165Z,7.95
2023-05-21T13:55:08.889Z,5.97
2023-05-21T13:57:35.912Z,6.93
2023-05-21T14:00:03.801Z,6.95
2023-05-21T14:02:34.665Z,5.15
2023-05-21T14:05:01.743Z,7.35
2023-05-21T14:07:28.674Z,6.15
2023-05-21T14:09:55.999Z,8.18
2023-05-21T14:12:22.950Z,5.35
2023-05-21T14:14:49.932Z,6.97
2023-05-21T14:17:17.093Z,9.45
2023-05-21T14:19:43.978Z,8.75
2023-05-21T14:22:11.216Z,6.40
2023-05-21T14:24:38.120Z,9.27
2023-05-21T14:27:05.177Z,7.75
2023-05-21T14:29:33.169Z,6.63
2023-05-21T14:32:00.118Z,6.43
2023-05-21T14:34:27.239Z,8.48
2023-05-21T14:36:54.120Z,6.57
2023-05-21T14:39:20.969Z,6.05
2023-05-21T14:41:47.805Z,6.82
2023-05-21T14:44:14.635Z,6.50
2023-05-21T14:46:41.915Z,6.78
2023-05-21T14:49:08.972Z,6.38
2023-05-21T14:51:35.807Z,6.55
2023-05-21T14:54:02.671Z,8.13
2023-05-21T14:56:29.555Z,5.85
2023-05-21T14:58:56.485Z,7.15
2023-05-21T15:01:23.772Z,7.93
2023-05-21T15:03:51.113Z,6.63
2023-05-21T15:06:18.266Z,6.40
2023-05-21T15:08:45.123Z,5.68
2023-05-21T15:11:11.933Z,9.63
2023-05-21T15:13:39.504Z,8.20
2023-05-21T15:16:06.719Z,8.50
2023-05-21T15:18:33.949Z,6.05
2023-05-21T15:21:00.798Z,6.95
2023-05-21T15:23:27.744Z,6.05
2023-05-21T15:25:55.522Z,8.48
2023-05-21T15:28:22.970Z,8.13
2023-05-21T15:30:49.864Z,8.15
2023-05-21T15:33:16.779Z,8.85
2023-05-21T15:35:44.273Z,6.93
2023-05-21T15:38:11.684Z,6.68
